createdAt,value
2022-09-06T00:02:55.603Z,3.30
2022-09-06T00:04:25.589Z,3.80
2022-09-06T00:08:51.790Z,3.50
2022-09-06T00:13:10.400Z,3.30
2022-09-06T00:14:40.360Z,3.30
2022-09-06T00:18:26.745Z,3.10
2022-09-06T00:19:55.632Z,3.30
2022-09-06T00:21:54.656Z,3.40
2022-09-06T00:24:11.987Z,3.30
2022-09-06T00:25:42.335Z,3.40
2022-09-06T00:36:47.451Z,4.50
2022-09-06T00:39:17.667Z,2.90
2022-09-06T00:40:47.711Z,2.50
2022-09-06T00:42:47.683Z,2.90
2022-09-06T00:47:53.862Z,3.60
2022-09-06T00:49:02.779Z,3.20
2022-09-06T00:51:01.519Z,3.10
2022-09-06T00:52:59.430Z,3.30
2022-09-06T00:54:57.265Z,3.20
2022-09-06T00:57:15.965Z,3.20
2022-09-06T01:01:25.076Z,3.40
2022-09-06T01:02:54.048Z,3.20
2022-09-06T01:04:52.898Z,3.20
2022-09-06T01:07:42.306Z,4.10
2022-09-06T01:12:39.580Z,3.10
2022-09-06T01:19:43.269Z,3.40
2022-09-06T01:22:01.838Z,3.30
2022-09-06T01:23:30.708Z,3.30
2022-09-06T01:28:29.410Z,3.80
2022-09-06T01:31:47.539Z,3.60
2022-09-06T01:33:17.187Z,3.30
2022-09-06T01:35:15.245Z,3.10
2022-09-06T01:42:46.330Z,3.90
2022-09-06T01:53:33.935Z,3.30
2022-09-06T01:55:04.254Z,3.40
2022-09-06T01:56:51.474Z,3.70
2022-09-06T01:59:21.416Z,3.70
2022-09-06T02:00:51.293Z,3.60
2022-09-06T02:02:21.283Z,3.70
2022-09-06T02:04:19.081Z,3.60
2022-09-06T02:06:37.854Z,3.70
2022-09-06T02:07:46.765Z,3.50
2022-09-06T02:09:15.703Z,4.00
2022-09-06T02:12:15.728Z,3.90
2022-09-06T02:13:44.642Z,4.10
2022-09-06T02:15:14.559Z,3.60
2022-09-06T02:17:43.496Z,3.90
2022-09-06T02:19:13.320Z,3.40
2022-09-06T02:21:13.197Z,4.40
2022-09-06T02:23:42.068Z,3.20
2022-09-06T02:28:30.113Z,3.60
2022-09-06T02:30:55.994Z,4.00
2022-09-06T02:37:10.777Z,3.50
2022-09-06T02:38:39.233Z,3.80
2022-09-06T02:41:45.545Z,4.40
2022-09-06T02:43:35.247Z,3.80
2022-09-06T02:47:20.609Z,4.00
2022-09-06T02:50:17.670Z,4.80
2022-09-06T02:57:30.476Z,4.70
2022-09-06T02:59:28.118Z,4.80
2022-09-06T03:01:17.857Z,6.00
2022-09-06T03:02:47.819Z,6.00
2022-09-06T03:04:17.753Z,6.10
2022-09-06T03:07:17.147Z,5.40
2022-09-06T03:08:28.072Z,6.30
2022-09-06T03:09:55.050Z,6.70
2022-09-06T03:11:25.971Z,6.00
2022-09-06T03:12:54.819Z,6.00
2022-09-06T03:14:45.521Z,5.80
2022-09-06T03:16:12.449Z,5.90
2022-09-06T03:20:11.733Z,6.20
2022-09-06T03:24:06.583Z,6.90
2022-09-06T03:26:55.229Z,6.20
2022-09-06T03:30:14.246Z,7.10
2022-09-06T03:31:43.645Z,6.80
2022-09-06T03:33:41.574Z,6.40
2022-09-06T03:35:11.435Z,6.10
2022-09-06T03:36:41.550Z,6.00
2022-09-06T03:40:01.255Z,6.10
2022-09-06T03:42:29.939Z,5.80
2022-09-06T03:44:28.800Z,6.70
2022-09-06T03:46:47.877Z,6.70
2022-09-06T03:48:47.684Z,10.90
2022-09-06T03:51:35.745Z,7.50
2022-09-06T03:56:15.810Z,5.20
2022-09-06T03:58:14.684Z,6.00
2022-09-06T03:59:43.659Z,5.50
2022-09-06T04:02:01.251Z,6.80
2022-09-06T04:04:30.455Z,5.80
2022-09-06T04:06:29.291Z,5.60
2022-09-06T04:13:30.474Z,5.80
2022-09-06T04:16:02.425Z,5.50
2022-09-06T04:21:46.496Z,6.60
2022-09-06T04:27:00.846Z,7.60
2022-09-06T04:29:28.972Z,7.30
2022-09-06T04:33:15.620Z,8.20
2022-09-06T04:36:05.436Z,10.40
2022-09-06T04:40:30.846Z,8.30
2022-09-06T04:43:47.610Z,8.50
2022-09-06T04:45:47.780Z,7.70
2022-09-06T04:50:43.027Z,8.00
2022-09-06T04:52:31.743Z,7.90
2022-09-06T04:56:47.467Z,9.30
2022-09-06T04:58:17.563Z,10.30
2022-09-06T04:59:46.449Z,10.80
2022-09-06T05:01:16.617Z,10.50
2022-09-06T05:05:54.040Z,11.80
2022-09-06T05:08:41.823Z,12.80
2022-09-06T05:12:44.103Z,13.50
2022-09-06T05:17:46.027Z,13.50
2022-09-06T05:20:34.816Z,12.50
2022-09-06T05:22:04.741Z,13.70
2022-09-06T05:24:22.882Z,12.90
2022-09-06T05:27:09.778Z,12.80
2022-09-06T05:28:44.791Z,11.80
2022-09-06T05:30:14.056Z,12.00
2022-09-06T05:31:42.748Z,13.80
2022-09-06T05:33:11.560Z,12.10
2022-09-06T05:34:40.523Z,13.20
2022-09-06T05:36:10.417Z,13.00
2022-09-06T05:40:10.142Z,13.20
2022-09-06T05:47:51.624Z,12.70
2022-09-06T05:49:23.521Z,12.80
2022-09-06T05:51:12.156Z,12.20
2022-09-06T05:53:42.897Z,11.80
2022-09-06T05:55:44.257Z,11.50
2022-09-06T05:57:44.017Z,12.70
2022-09-06T05:59:11.367Z,10.00
2022-09-06T06:01:10.753Z,12.70
2022-09-06T06:06:20.049Z,11.40
2022-09-06T06:07:47.835Z,11.90
2022-09-06T06:10:08.042Z,13.00
2022-09-06T06:11:34.522Z,12.90
2022-09-06T06:13:04.499Z,12.20
2022-09-06T06:14:34.407Z,12.30
2022-09-06T06:17:24.382Z,11.30
2022-09-06T06:18:53.275Z,11.60
2022-09-06T06:22:00.682Z,11.60
2022-09-06T06:23:33.054Z,11.80
2022-09-06T06:25:00.859Z,11.90
2022-09-06T06:26:31.719Z,12.30
2022-09-06T06:28:28.457Z,12.20
2022-09-06T06:34:43.264Z,12.80
2022-09-06T06:36:46.587Z,12.90
2022-09-06T06:39:36.442Z,11.00
2022-09-06T06:45:35.836Z,14.40
2022-09-06T06:47:05.757Z,13.70
2022-09-06T06:50:22.781Z,14.20
2022-09-06T06:52:23.361Z,14.70
2022-09-06T06:53:52.228Z,14.90
2022-09-06T06:55:20.636Z,14.20
2022-09-06T06:56:50.430Z,13.80
2022-09-06T06:58:39.116Z,14.70
2022-09-06T07:01:30.621Z,14.40
2022-09-06T07:04:30.294Z,14.30
2022-09-06T07:07:58.840Z,15.00
2022-09-06T07:10:50.465Z,14.50
2022-09-06T07:12:22.998Z,13.80
2022-09-06T07:14:54.032Z,14.50
2022-09-06T07:16:27.353Z,15.20
2022-09-06T07:18:55.151Z,13.90
2022-09-06T07:24:10.824Z,13.80
2022-09-06T07:26:29.453Z,13.10
2022-09-06T07:32:36.076Z,13.00
2022-09-06T07:37:00.848Z,13.00
2022-09-06T07:38:30.724Z,12.80
2022-09-06T07:41:18.560Z,12.10
2022-09-06T07:44:27.657Z,12.10
2022-09-06T07:48:17.127Z,12.40
2022-09-06T07:50:54.595Z,10.80
2022-09-06T07:54:30.369Z,11.90
2022-09-06T07:55:56.614Z,11.00
2022-09-06T08:00:34.729Z,10.40
2022-09-06T08:02:32.525Z,11.90
2022-09-06T08:04:51.852Z,12.10
2022-09-06T08:07:42.826Z,11.40
2022-09-06T08:09:32.549Z,11.50
2022-09-06T08:11:30.337Z,11.20
2022-09-06T08:14:17.880Z,11.70
2022-09-06T08:16:38.548Z,11.30
2022-09-06T08:18:05.445Z,12.20
2022-09-06T08:27:48.615Z,11.20
2022-09-06T08:29:46.730Z,9.80
2022-09-06T08:32:53.713Z,9.80
2022-09-06T08:34:52.525Z,10.20
2022-09-06T08:38:10.109Z,10.20
2022-09-06T08:41:07.630Z,9.40
2022-09-06T08:42:57.353Z,9.40
2022-09-06T08:48:15.531Z,9.60
2022-09-06T08:50:15.302Z,9.60
2022-09-06T08:52:13.098Z,9.70
2022-09-06T08:55:39.411Z,9.10
2022-09-06T08:57:09.233Z,9.20
2022-09-06T08:59:37.089Z,8.90
2022-09-06T09:01:36.012Z,8.50
2022-09-06T09:03:05.829Z,7.90
2022-09-06T09:08:01.231Z,7.30
2022-09-06T09:10:57.898Z,7.70
2022-09-06T09:12:26.783Z,8.50
2022-09-06T09:13:56.335Z,8.30
2022-09-06T09:16:23.530Z,6.60
2022-09-06T09:17:54.299Z,6.20
2022-09-06T09:19:53.547Z,7.00
2022-09-06T09:21:42.298Z,7.90
2022-09-06T09:23:11.207Z,7.30
2022-09-06T09:25:39.552Z,7.30
2022-09-06T09:31:16.046Z,6.40
2022-09-06T09:32:44.682Z,5.80
2022-09-06T09:34:14.302Z,7.50
2022-09-06T09:35:44.497Z,6.10
2022-09-06T09:40:50.790Z,5.50
2022-09-06T09:43:09.424Z,5.80
2022-09-06T09:45:08.704Z,6.10
2022-09-06T09:47:08.146Z,5.40
2022-09-06T09:48:38.062Z,5.40
2022-09-06T09:50:08.149Z,6.40
2022-09-06T09:52:06.231Z,5.70
2022-09-06T09:56:50.002Z,5.60
2022-09-06T10:00:19.286Z,5.50
2022-09-06T10:03:08.873Z,6.10
2022-09-06T10:07:55.709Z,5.00
2022-09-06T10:10:42.559Z,4.90
2022-09-06T10:14:28.730Z,4.10
2022-09-06T10:17:26.470Z,3.70
2022-09-06T10:20:45.234Z,4.10
2022-09-06T10:22:34.262Z,3.90
2022-09-06T10:25:32.649Z,3.70
2022-09-06T10:28:10.880Z,3.50
2022-09-06T10:29:31.557Z,3.60
2022-09-06T10:31:21.266Z,3.80
2022-09-06T10:32:51.079Z,3.80
2022-09-06T10:34:20.962Z,3.50
2022-09-06T10:36:20.168Z,3.40
2022-09-06T10:39:07.764Z,3.30
2022-09-06T10:40:36.655Z,3.30
2022-09-06T10:42:55.550Z,3.00
2022-09-06T10:45:44.578Z,3.40
2022-09-06T10:47:14.010Z,3.00
2022-09-06T10:49:31.629Z,2.60
2022-09-06T10:53:50.829Z,2.80
2022-09-06T10:55:19.429Z,2.50
2022-09-06T10:59:37.860Z,2.40
2022-09-06T11:00:38.425Z,3.10
2022-09-06T11:02:10.311Z,2.50
2022-09-06T11:03:56.998Z,3.30
2022-09-06T11:11:35.755Z,2.50
2022-09-06T11:13:43.212Z,2.60
2022-09-06T11:15:42.584Z,3.20
2022-09-06T11:17:11.562Z,2.70
2022-09-06T11:22:01.695Z,2.20
2022-09-06T11:25:08.488Z,2.40
2022-09-06T11:29:45.822Z,2.50
2022-09-06T11:32:46.026Z,2.60
2022-09-06T11:37:13.716Z,2.20
2022-09-06T11:48:33.921Z,1.90
2022-09-06T11:51:51.204Z,1.90
2022-09-06T11:53:21.166Z,1.90
2022-09-06T11:54:50.080Z,1.60
2022-09-06T11:56:19.955Z,1.90
2022-09-06T11:59:08.497Z,1.90
2022-09-06T12:01:06.313Z,2.10
2022-09-06T12:04:23.115Z,1.30
2022-09-06T12:08:38.545Z,1.70
2022-09-06T12:13:33.126Z,3.20
2022-09-06T12:16:30.475Z,1.40
2022-09-06T12:17:59.614Z,1.80
2022-09-06T12:21:25.241Z,1.50
2022-09-06T12:24:12.058Z,1.80
2022-09-06T12:28:09.191Z,1.50
2022-09-06T12:29:38.367Z,1.50
2022-09-06T12:31:07.660Z,1.70
2022-09-06T12:33:56.346Z,1.70
2022-09-06T12:36:44.632Z,1.90
2022-09-06T12:38:14.552Z,1.70
2022-09-06T12:39:44.518Z,1.60
2022-09-06T12:41:13.817Z,1.80
2022-09-06T12:43:42.987Z,2.10
2022-09-06T12:45:41.918Z,1.60
2022-09-06T12:48:51.525Z,1.90
2022-09-06T12:50:19.936Z,3.00
2022-09-06T12:52:21.722Z,1.60
2022-09-06T12:53:49.093Z,1.90
2022-09-06T12:55:18.494Z,2.20
2022-09-06T12:56:47.572Z,2.30
2022-09-06T12:58:17.735Z,2.10
2022-09-06T13:04:11.684Z,1.80
2022-09-06T13:05:41.545Z,1.90
2022-09-06T13:07:40.731Z,2.00
2022-09-06T13:09:39.516Z,1.90
2022-09-06T13:11:57.257Z,2.00
2022-09-06T13:17:50.974Z,2.00
2022-09-06T13:20:48.150Z,1.70
2022-09-06T13:23:46.951Z,1.70
2022-09-06T13:31:09.949Z,1.40
2022-09-06T13:34:56.870Z,1.90
2022-09-06T13:36:26.858Z,1.80
2022-09-06T13:38:55.567Z,1.50
2022-09-06T13:41:16.501Z,1.40
2022-09-06T13:42:43.142Z,1.60
2022-09-06T13:59:31.887Z,1.90
2022-09-06T14:03:08.523Z,1.80
2022-09-06T14:06:25.900Z,1.90
2022-09-06T14:11:57.709Z,1.70
2022-09-06T14:14:27.371Z,1.80
2022-09-06T14:15:55.386Z,1.90
2022-09-06T14:21:08.841Z,1.80
2022-09-06T14:24:07.265Z,1.50
2022-09-06T14:27:05.340Z,1.40
2022-09-06T14:29:33.371Z,2.20
2022-09-06T14:31:02.670Z,2.10
2022-09-06T14:36:29.039Z,1.50
2022-09-06T14:47:00.535Z,1.80
2022-09-06T14:49:59.043Z,1.50
2022-09-06T14:56:02.064Z,1.30
2022-09-06T14:58:29.087Z,1.20
2022-09-06T15:00:27.902Z,1.20
2022-09-06T15:12:57.624Z,1.60
2022-09-06T15:14:56.289Z,6.20
2022-09-06T15:18:51.759Z,1.30
2022-09-06T15:20:20.698Z,1.10
2022-09-06T15:24:01.417Z,1.20
2022-09-06T15:26:00.619Z,1.20
2022-09-06T15:30:51.367Z,3.60
2022-09-06T15:38:29.610Z,1.60
2022-09-06T15:40:28.614Z,2.40
2022-09-06T15:43:16.117Z,1.40
2022-09-06T15:45:45.258Z,1.30
2022-09-06T15:50:51.246Z,1.20
2022-09-06T15:54:09.224Z,1.10
2022-09-06T15:56:37.129Z,1.30
2022-09-06T16:03:10.732Z,1.20
2022-09-06T16:06:27.767Z,1.10
2022-09-06T16:08:24.757Z,1.10
2022-09-06T16:09:54.610Z,2.20
2022-09-06T16:12:24.429Z,1.50
2022-09-06T16:23:36.786Z,1.40
2022-09-06T16:25:07.534Z,1.40
2022-09-06T16:27:07.954Z,1.30
2022-09-06T16:29:57.364Z,1.90
2022-09-06T16:32:45.838Z,1.50
2022-09-06T16:37:08.576Z,1.10
2022-09-06T16:43:23.916Z,1.30
2022-09-06T16:55:58.096Z,1.90
2022-09-06T17:05:00.539Z,1.50
2022-09-06T17:10:13.713Z,1.50
2022-09-06T17:11:42.877Z,1.90
2022-09-06T17:15:30.852Z,2.10
2022-09-06T17:16:59.851Z,2.10
2022-09-06T17:18:58.566Z,1.70
2022-09-06T17:20:57.398Z,2.00
2022-09-06T17:24:43.833Z,1.80
2022-09-06T17:31:00.917Z,6.30
2022-09-06T17:33:29.577Z,6.60
2022-09-06T17:34:58.480Z,7.20
2022-09-06T17:39:14.920Z,10.20
2022-09-06T17:40:44.846Z,7.40
2022-09-06T17:43:13.914Z,8.60
2022-09-06T17:44:43.728Z,6.90
2022-09-06T17:47:02.849Z,6.20
2022-09-06T17:52:57.745Z,6.40
2022-09-06T17:56:35.495Z,4.10
2022-09-06T17:58:04.360Z,3.90
2022-09-06T18:00:55.057Z,4.20
2022-09-06T18:02:23.881Z,3.50
2022-09-06T18:03:54.079Z,3.30
2022-09-06T18:05:52.065Z,3.00
2022-09-06T18:09:40.480Z,2.90
2022-09-06T18:17:37.864Z,4.80
2022-09-06T18:32:25.111Z,10.60
2022-09-06T18:33:53.975Z,10.90
2022-09-06T18:35:22.934Z,10.80
2022-09-06T18:38:21.780Z,8.10
2022-09-06T18:40:20.660Z,8.10
2022-09-06T18:41:49.597Z,7.00
2022-09-06T18:43:19.747Z,6.00
2022-09-06T18:44:48.735Z,5.40
2022-09-06T18:50:03.994Z,4.90
2022-09-06T18:51:32.853Z,4.70
2022-09-06T18:53:59.645Z,4.20
2022-09-06T18:57:54.825Z,5.40
2022-09-06T19:00:22.976Z,5.50
2022-09-06T19:01:54.166Z,4.50
2022-09-06T19:03:50.074Z,3.90
2022-09-06T19:05:50.547Z,4.10
2022-09-06T19:07:18.803Z,4.10
2022-09-06T19:09:37.865Z,5.60
2022-09-06T19:11:06.339Z,4.80
2022-09-06T19:13:52.917Z,3.80
2022-09-06T19:15:24.751Z,3.80
2022-09-06T19:19:21.604Z,3.00
2022-09-06T19:33:07.941Z,2.60
2022-09-06T19:36:11.904Z,2.00
2022-09-06T19:38:47.317Z,2.60
2022-09-06T19:44:01.424Z,1.90
2022-09-06T19:45:58.568Z,2.30
2022-09-06T19:48:26.469Z,2.30
2022-09-06T19:56:04.335Z,2.40
2022-09-06T19:58:23.644Z,2.60
2022-09-06T20:04:36.473Z,2.10
2022-09-06T20:06:05.304Z,2.30
2022-09-06T20:08:04.340Z,2.10
2022-09-06T20:10:03.149Z,2.30
2022-09-06T20:16:27.126Z,2.40
2022-09-06T20:22:32.706Z,3.00
2022-09-06T20:25:18.608Z,3.20
2022-09-06T20:27:16.461Z,3.40
2022-09-06T20:29:18.186Z,3.80
2022-09-06T20:31:47.104Z,2.90
2022-09-06T20:35:03.926Z,3.40
2022-09-06T20:37:01.686Z,3.90
2022-09-06T20:39:30.455Z,2.90
2022-09-06T20:41:59.225Z,3.50
2022-09-06T20:45:24.818Z,3.30
2022-09-06T20:47:29.201Z,2.90
2022-09-06T20:53:14.179Z,2.70
2022-09-06T20:55:11.950Z,2.80
2022-09-06T20:57:40.656Z,2.90
2022-09-06T21:00:36.811Z,3.20
2022-09-06T21:02:38.103Z,3.10
2022-09-06T21:04:07.176Z,2.90
2022-09-06T21:06:35.296Z,2.50
2022-09-06T21:10:23.104Z,3.30
2022-09-06T21:12:39.673Z,3.50
2022-09-06T21:14:57.643Z,3.80
2022-09-06T21:18:35.155Z,4.20
2022-09-06T21:22:21.587Z,4.50
2022-09-06T21:28:36.129Z,4.60
2022-09-06T21:30:56.757Z,5.00
2022-09-06T21:36:03.910Z,3.90
2022-09-06T21:44:42.688Z,4.30
2022-09-06T21:46:12.639Z,4.40
2022-09-06T21:49:55.482Z,4.10
2022-09-06T21:51:22.643Z,5.00
2022-09-06T21:53:54.446Z,4.60
2022-09-06T21:55:43.172Z,4.50
2022-09-06T21:59:40.784Z,4.50
2022-09-06T22:04:46.945Z,4.10
2022-09-06T22:09:20.140Z,3.90
2022-09-06T22:10:49.490Z,4.40
2022-09-06T22:12:19.903Z,4.50
2022-09-06T22:17:47.626Z,4.70
2022-09-06T22:22:54.835Z,4.60
2022-09-06T22:26:01.915Z,4.60
2022-09-06T22:29:10.309Z,4.70
2022-09-06T22:31:10.275Z,4.50
2022-09-06T22:32:40.031Z,5.00
2022-09-06T22:36:06.550Z,4.90
2022-09-06T22:38:05.408Z,4.50
2022-09-06T22:40:02.648Z,4.70
2022-09-06T22:42:31.287Z,4.60
2022-09-06T22:44:49.896Z,4.60
2022-09-06T22:46:38.660Z,4.10
2022-09-06T22:48:58.214Z,4.50
2022-09-06T22:51:45.708Z,4.60
2022-09-06T22:54:04.674Z,5.10
2022-09-06T22:55:36.500Z,5.50
2022-09-06T22:58:45.054Z,4.90
2022-09-06T23:01:04.162Z,4.70
2022-09-06T23:03:02.930Z,5.00
2022-09-06T23:08:16.538Z,5.10
2022-09-06T23:14:43.487Z,4.80
2022-09-06T23:16:13.906Z,5.80
2022-09-06T23:19:52.696Z,5.70
2022-09-06T23:21:23.052Z,5.40
2022-09-06T23:23:40.306Z,5.50
2022-09-06T23:26:29.289Z,5.90
2022-09-06T23:27:56.896Z,6.10
2022-09-06T23:32:02.959Z,6.00
2022-09-06T23:35:40.505Z,5.30
2022-09-06T23:37:40.263Z,5.60
2022-09-06T23:39:08.868Z,5.20
2022-09-06T23:40:38.731Z,5.40
2022-09-06T23:47:34.433Z,5.80
2022-09-06T23:51:22.806Z,5.50
2022-09-06T23:56:38.200Z,6.10
2022-09-06T23:59:05.207Z,5.90
